Time;durP1;ratioP1;P1;durP2;ratioP2;P2;SDS_P1;SDS_P2;PMS_P1;PMS_P2;Temp;Humidity;BMP_temperature;BMP_pressure;BME280_temperature;BME280_humidity;BME280_pressure;Samples;Min_cycle;Max_cycle;Signal;HPM_P1;HPM_P2
2022/06/22 00:00:37;;;;;;;14.45;10.63;;;10.30;1.00;;;;;;5029348;28;20053;-88
2022/06/22 00:03:09;;;;;;;12.93;9.15;;;10.20;1.00;;;;;;5036465;28;20033;-88
2022/06/22 00:05:49;;;;;;;13.23;9.75;;;10.20;1.00;;;;;;5036033;28;20041;-87
2022/06/22 00:08:21;;;;;;;13.82;10.45;;;10.10;1.00;;;;;;5022005;28;20465;-88
2022/06/22 00:10:55;;;;;;;12.45;9.85;;;10.10;1.00;;;;;;5036569;28;20036;-87
2022/06/22 00:13:24;;;;;;;18.15;12.07;;;10.00;1.00;;;;;;5050990;28;20293;-88
2022/06/22 00:15:57;;;;;;;13.15;9.57;;;10.00;1.00;;;;;;5016095;28;20097;-86
2022/06/22 00:18:32;;;;;;;14.98;10.88;;;10.00;1.00;;;;;;5036295;28;20044;-88
2022/06/22 00:21:04;;;;;;;15.32;10.45;;;10.00;1.00;;;;;;5040294;28;20041;-88
2022/06/22 00:23:30;;;;;;;16.92;14.18;;;9.80;1.00;;;;;;5040968;28;20045;-88
2022/06/22 00:26:06;;;;;;;12.25;10.50;;;9.90;1.00;;;;;;5027561;28;20056;-88
2022/06/22 00:28:51;;;;;;;7.63;6.72;;;9.80;1.00;;;;;;5031852;28;20033;-88
2022/06/22 00:31:31;;;;;;;12.60;9.77;;;9.70;1.00;;;;;;5035660;28;20209;-88
2022/06/22 00:34:08;;;;;;;12.90;9.57;;;9.70;1.00;;;;;;5038985;28;20115;-88
2022/06/22 00:36:38;;;;;;;12.10;8.80;;;9.60;1.00;;;;;;5024849;28;20037;-88
2022/06/22 00:39:13;;;;;;;12.35;10.07;;;9.60;1.00;;;;;;5025767;28;20148;-88
2022/06/22 00:41:39;;;;;;;12.40;9.38;;;9.60;1.00;;;;;;5030124;28;20568;-88
2022/06/22 00:44:11;;;;;;;14.10;9.85;;;9.50;1.00;;;;;;5025780;28;20128;-87
2022/06/22 00:46:43;;;;;;;14.20;10.50;;;9.40;1.00;;;;;;5035594;28;20058;-87
2022/06/22 00:49:16;;;;;;;13.20;9.98;;;9.30;1.00;;;;;;5021836;28;20068;-87
2022/06/22 00:51:43;;;;;;;10.70;8.88;;;9.30;1.00;;;;;;5033043;28;20033;-88
2022/06/22 00:54:16;;;;;;;199.50;16.05;;;9.20;1.00;;;;;;5023138;28;20133;-87
2022/06/22 00:56:57;;;;;;;11.85;10.43;;;9.20;1.00;;;;;;5023822;28;20461;-89
2022/06/22 00:59:45;;;;;;;116.57;11.95;;;9.20;1.00;;;;;;5024440;28;20412;-88
2022/06/22 01:02:20;;;;;;;377.10;17.63;;;9.30;1.00;;;;;;5038119;28;20187;-87
2022/06/22 01:04:59;;;;;;;16.45;12.23;;;9.10;1.00;;;;;;5048747;28;20032;-87
2022/06/22 01:07:33;;;;;;;14.07;11.10;;;9.20;1.00;;;;;;5035537;28;20408;-87
2022/06/22 01:10:05;;;;;;;133.98;9.80;;;9.10;1.00;;;;;;5025459;28;20044;-87
2022/06/22 01:12:41;;;;;;;301.00;15.25;;;8.90;1.00;;;;;;5036911;28;20071;-87
2022/06/22 01:15:15;;;;;;;152.77;9.60;;;8.80;1.00;;;;;;5017025;28;20033;-87
2022/06/22 01:18:07;;;;;;;143.80;11.52;;;8.80;1.00;;;;;;5034199;28;20040;-87
2022/06/22 01:20:55;;;;;;;211.82;10.32;;;8.70;1.00;;;;;;5020940;28;20037;-87
2022/06/22 01:23:35;;;;;;;228.65;13.95;;;8.60;1.00;;;;;;5051077;28;20040;-87
2022/06/22 01:26:39;;;;;;;217.07;11.93;;;8.70;1.00;;;;;;5042213;28;20033;-87
2022/06/22 01:29:25;;;;;;;51.53;9.27;;;8.70;1.00;;;;;;5033118;28;20052;-87
2022/06/22 01:32:02;;;;;;;12.93;9.77;;;8.70;1.00;;;;;;5020821;28;20424;-87
2022/06/22 01:34:36;;;;;;;10.77;9.00;;;8.70;1.00;;;;;;5023252;28;20144;-87
2022/06/22 01:37:05;;;;;;;11.55;9.82;;;8.60;1.00;;;;;;5031048;28;20032;-87
2022/06/22 01:39:31;;;;;;;16.45;12.27;;;8.60;1.00;;;;;;5029566;28;20337;-87
2022/06/22 01:42:07;;;;;;;13.40;10.55;;;8.60;1.00;;;;;;5020752;28;20523;-87
2022/06/22 01:44:51;;;;;;;11.85;9.20;;;8.60;1.00;;;;;;5036907;28;20037;-87
2022/06/22 01:47:41;;;;;;;13.77;10.40;;;8.50;1.00;;;;;;5036817;28;20544;-87
2022/06/22 01:50:25;;;;;;;13.40;10.00;;;8.60;1.00;;;;;;5037345;28;20045;-86
2022/06/22 01:53:08;;;;;;;13.73;10.57;;;8.60;1.00;;;;;;5020494;28;20036;-86
2022/06/22 01:55:54;;;;;;;14.07;10.80;;;8.50;1.00;;;;;;5038312;28;20067;-86
2022/06/22 01:58:19;;;;;;;13.27;9.70;;;8.50;1.00;;;;;;5035081;28;20377;-87
2022/06/22 02:00:57;;;;;;;13.32;9.50;;;8.40;1.00;;;;;;5020296;28;20025;-86
2022/06/22 02:03:28;;;;;;;16.98;9.43;;;8.40;1.00;;;;;;5018364;28;20045;-87
2022/06/22 02:09:06;;;;;;;6.35;5.70;;;8.00;1.00;;;;;;5019459;28;20068;-86
2022/06/22 02:11:41;;;;;;;10.55;6.75;;;8.00;1.00;;;;;;5038420;28;20048;-86
2022/06/22 02:14:17;;;;;;;13.20;5.60;;;8.00;1.00;;;;;;5035350;28;20085;-86
2022/06/22 02:16:48;;;;;;;14.88;7.75;;;7.70;1.00;;;;;;5040809;28;20040;-87
2022/06/22 02:19:17;;;;;;;10.15;7.22;;;7.70;1.00;;;;;;5037060;28;20219;-86
2022/06/22 02:21:52;;;;;;;8.90;7.10;;;7.70;1.00;;;;;;5041210;28;20052;-86
2022/06/22 02:24:46;;;;;;;10.70;7.63;;;7.70;1.00;;;;;;5043598;28;20216;-86
2022/06/22 02:27:23;;;;;;;10.88;7.57;;;7.80;1.00;;;;;;5041498;28;20041;-87
2022/06/22 02:29:51;;;;;;;10.20;8.55;;;7.70;1.00;;;;;;5034601;28;20067;-86
2022/06/22 02:32:32;;;;;;;16.15;11.07;;;7.70;1.00;;;;;;5019651;28;20532;-86
2022/06/22 02:34:58;;;;;;;14.77;10.15;;;7.80;1.00;;;;;;5038764;28;20493;-86
2022/06/22 02:37:29;;;;;;;15.75;10.93;;;7.70;1.00;;;;;;5038979;28;20043;-86
2022/06/22 02:40:19;;;;;;;25.10;12.10;;;7.70;1.00;;;;;;5037805;28;20072;-86
2022/06/22 02:45:31;;;;;;;21.23;11.45;;;7.80;1.00;;;;;;5035910;28;20045;-86
2022/06/22 02:48:13;;;;;;;12.73;9.25;;;7.80;1.00;;;;;;5016405;28;20534;-86
2022/06/22 02:50:46;;;;;;;11.88;9.38;;;7.80;1.00;;;;;;5032471;28;20163;-85
2022/06/22 02:53:23;;;;;;;10.43;8.65;;;7.70;1.00;;;;;;5021467;28;20071;-85
2022/06/22 02:55:50;;;;;;;12.80;9.50;;;7.80;1.00;;;;;;5032011;28;21303;-86
2022/06/22 02:58:30;;;;;;;13.90;11.00;;;7.70;1.00;;;;;;5019233;28;20029;-85
2022/06/22 03:01:14;;;;;;;11.45;9.32;;;7.70;1.00;;;;;;5033483;28;20052;-87
2022/06/22 03:03:49;;;;;;;11.70;10.15;;;7.70;1.00;;;;;;5043879;28;20063;-86
2022/06/22 03:06:18;;;;;;;12.13;9.60;;;7.60;1.00;;;;;;5018032;28;20048;-86
2022/06/22 03:08:44;;;;;;;12.15;9.35;;;7.60;1.00;;;;;;5021256;28;20185;-86
2022/06/22 03:11:11;;;;;;;13.73;10.45;;;7.60;1.00;;;;;;5019966;28;20077;-86
2022/06/22 03:13:44;;;;;;;17.10;10.10;;;7.60;1.00;;;;;;5018641;28;20039;-86
2022/06/22 03:16:35;;;;;;;46.65;11.50;;;7.60;1.00;;;;;;5030106;28;20032;-86
2022/06/22 03:19:06;;;;;;;56.38;11.80;;;7.50;1.00;;;;;;5029116;28;20087;-86
2022/06/22 03:21:31;;;;;;;22.13;10.02;;;7.50;1.00;;;;;;5034947;28;20321;-86
2022/06/22 03:24:32;;;;;;;22.83;9.38;;;7.60;1.00;;;;;;5034574;28;20062;-86
2022/06/22 03:27:03;;;;;;;74.30;11.00;;;7.60;1.00;;;;;;5047439;28;20048;-87
2022/06/22 03:29:37;;;;;;;42.85;10.88;;;7.60;1.00;;;;;;5018449;28;20041;-86
2022/06/22 03:32:03;;;;;;;84.07;13.50;;;7.60;1.00;;;;;;5021185;28;20040;-87
2022/06/22 03:34:35;;;;;;;50.40;11.02;;;7.70;1.00;;;;;;5022734;28;20045;-86
2022/06/22 03:37:09;;;;;;;91.72;14.95;;;7.70;1.00;;;;;;5017476;28;20048;-86
2022/06/22 03:39:38;;;;;;;249.32;20.55;;;7.80;1.00;;;;;;5027553;28;20499;-85
2022/06/22 03:42:12;;;;;;;175.55;16.13;;;7.60;1.00;;;;;;5021649;28;20115;-86
2022/06/22 03:44:55;;;;;;;93.20;13.30;;;7.70;1.00;;;;;;5036788;28;20049;-86
2022/06/22 03:47:30;;;;;;;112.72;12.93;;;7.60;1.00;;;;;;5019821;28;20037;-85
2022/06/22 03:50:05;;;;;;;62.35;10.95;;;7.60;1.00;;;;;;5055606;28;20048;-85
2022/06/22 03:52:49;;;;;;;86.63;12.30;;;7.50;1.00;;;;;;5029026;28;20082;-85
2022/06/22 03:55:20;;;;;;;39.83;11.60;;;7.60;1.00;;;;;;5034206;28;20033;-85
2022/06/22 03:57:49;;;;;;;72.70;11.77;;;7.60;1.00;;;;;;5031997;28;20053;-86
2022/06/22 04:00:16;;;;;;;56.30;11.38;;;7.70;1.00;;;;;;5035374;28;20037;-86
2022/06/22 04:02:42;;;;;;;364.45;19.30;;;7.80;1.00;;;;;;5021111;28;20041;-85
2022/06/22 04:05:18;;;;;;;266.40;16.55;;;7.90;1.00;;;;;;5025166;28;20045;-86
2022/06/22 04:07:45;;;;;;;143.27;13.38;;;7.80;1.00;;;;;;5047679;28;20123;-85
2022/06/22 04:10:35;;;;;;;101.82;12.57;;;7.80;1.00;;;;;;5025352;28;20048;-85
2022/06/22 04:13:04;;;;;;;50.10;9.52;;;7.80;1.00;;;;;;5045099;28;20310;-85
2022/06/22 04:16:09;;;;;;;15.35;8.27;;;7.90;1.00;;;;;;5038995;28;20040;-85
2022/06/22 04:18:42;;;;;;;30.02;9.60;;;8.20;1.00;;;;;;5035132;28;20075;-82
2022/06/22 04:21:12;;;;;;;90.25;12.95;;;8.30;1.00;;;;;;5040255;28;20488;-82
2022/06/22 04:23:48;;;;;;;73.38;11.98;;;8.30;1.00;;;;;;5035234;28;20041;-82
2022/06/22 04:26:50;;;;;;;60.78;12.23;;;8.40;10.50;;;;;;5022706;28;20120;-82
2022/06/22 04:29:21;;;;;;;36.83;11.07;;;8.50;17.80;;;;;;5017750;28;20077;-81
2022/06/22 04:32:24;;;;;;;27.75;11.45;;;8.70;35.40;;;;;;5023408;28;20108;-82
2022/06/22 04:35:16;;;;;;;43.75;12.77;;;8.90;29.00;;;;;;5029932;28;20489;-82
2022/06/22 04:37:59;;;;;;;23.02;12.57;;;9.10;23.50;;;;;;5021283;28;20033;-82
2022/06/22 04:40:37;;;;;;;34.55;14.95;;;9.30;31.10;;;;;;5042920;28;20052;-82
2022/06/22 04:43:04;;;;;;;19.60;12.10;;;9.50;29.10;;;;;;5039862;28;20071;-82
2022/06/22 04:45:34;;;;;;;36.95;14.98;;;9.60;42.20;;;;;;5034849;28;20049;-82
2022/06/22 04:48:29;;;;;;;49.33;17.13;;;9.80;32.80;;;;;;5038943;28;20048;-82
2022/06/22 04:50:58;;;;;;;28.63;15.63;;;9.90;51.90;;;;;;5038357;28;20056;-82
2022/06/22 04:53:37;;;;;;;20.15;14.18;;;10.00;73.70;;;;;;5036690;28;20033;-82
2022/06/22 04:56:06;;;;;;;19.85;13.95;;;10.20;71.40;;;;;;5042598;28;20076;-82
2022/06/22 04:58:46;;;;;;;23.52;15.65;;;10.40;82.00;;;;;;5045207;28;20073;-82
2022/06/22 05:01:24;;;;;;;20.05;14.73;;;10.60;99.30;;;;;;5056111;28;20311;-82
2022/06/22 05:03:56;;;;;;;21.67;15.75;;;10.80;99.90;;;;;;5035025;28;20045;-82
2022/06/22 05:06:33;;;;;;;20.30;15.27;;;11.00;99.90;;;;;;5042497;28;20044;-81
2022/06/22 05:09:05;;;;;;;28.33;17.33;;;11.10;99.90;;;;;;5038681;28;20383;-82
2022/06/22 05:11:45;;;;;;;26.08;17.45;;;11.30;99.90;;;;;;5023359;28;20076;-81
2022/06/22 05:14:27;;;;;;;24.75;16.08;;;11.50;99.90;;;;;;5046679;28;20037;-82
2022/06/22 05:17:01;;;;;;;24.83;16.65;;;11.70;99.90;;;;;;5046074;28;20128;-82
2022/06/22 05:19:44;;;;;;;21.80;16.02;;;12.00;99.90;;;;;;5037667;28;20492;-82
2022/06/22 05:22:13;;;;;;;19.80;15.13;;;12.10;99.90;;;;;;5038205;28;20358;-82
2022/06/22 05:24:44;;;;;;;19.60;15.45;;;12.30;99.90;;;;;;5024019;28;20499;-82
2022/06/22 05:27:14;;;;;;;18.70;14.55;;;12.40;99.90;;;;;;5018623;28;20037;-82
2022/06/22 05:29:49;;;;;;;20.48;15.40;;;12.50;99.90;;;;;;5030407;28;20116;-82
2022/06/22 05:32:20;;;;;;;20.52;15.40;;;12.70;99.90;;;;;;5032225;28;20098;-82
2022/06/22 05:34:49;;;;;;;20.65;15.45;;;12.70;94.50;;;;;;5017904;28;20044;-82
2022/06/22 05:37:20;;;;;;;18.98;14.73;;;12.90;73.10;;;;;;5054504;28;20550;-82
2022/06/22 05:39:46;;;;;;;24.02;15.35;;;13.00;86.80;;;;;;5024996;28;20035;-82
2022/06/22 05:42:15;;;;;;;20.13;15.65;;;13.20;74.60;;;;;;5036419;28;20144;-82
2022/06/22 05:44:41;;;;;;;18.80;13.75;;;13.30;37.80;;;;;;5031453;28;20041;-82
2022/06/22 05:47:22;;;;;;;18.17;14.68;;;13.40;31.70;;;;;;5030771;28;20480;-82
2022/06/22 05:50:13;;;;;;;18.83;14.23;;;13.50;11.20;;;;;;5021860;28;20044;-82
2022/06/22 05:52:51;;;;;;;18.95;14.75;;;13.70;1.00;;;;;;5047572;28;20531;-82
2022/06/22 05:55:29;;;;;;;16.92;14.15;;;13.80;1.00;;;;;;5022296;28;20032;-82
2022/06/22 05:58:20;;;;;;;19.55;15.30;;;14.00;1.00;;;;;;5017884;28;20052;-82
2022/06/22 06:00:48;;;;;;;22.63;16.35;;;14.10;1.00;;;;;;5023398;28;20090;-82
2022/06/22 06:03:45;;;;;;;21.85;16.75;;;14.20;1.00;;;;;;5032911;28;20041;-82
2022/06/22 06:06:24;;;;;;;20.58;16.55;;;14.50;1.00;;;;;;5021141;28;20101;-82
2022/06/22 06:08:58;;;;;;;20.42;17.17;;;14.60;1.00;;;;;;5049140;28;20041;-82
2022/06/22 06:11:46;;;;;;;24.10;17.70;;;14.70;1.00;;;;;;5034846;28;20457;-83
2022/06/22 06:14:26;;;;;;;24.13;16.63;;;14.80;1.00;;;;;;5030645;28;20048;-83
2022/06/22 06:16:55;;;;;;;21.40;16.35;;;15.00;1.00;;;;;;5021246;28;20044;-83
2022/06/22 06:19:25;;;;;;;20.90;16.45;;;15.00;99.90;;;;;;5018897;28;20520;-83
2022/06/22 06:21:54;;;;;;;20.95;16.83;;;15.30;1.00;;;;;;5018727;28;20112;-83
2022/06/22 06:24:33;;;;;;;19.85;14.32;;;15.50;1.00;;;;;;5018847;28;20110;-82
2022/06/22 06:30:22;;;;;;;21.23;14.25;;;15.50;99.90;;;;;;5034750;28;20033;-83
2022/06/22 06:33:12;;;;;;;18.55;13.35;;;15.70;99.90;;;;;;4994120;28;20060;-83
2022/06/22 06:35:59;;;;;;;16.70;12.63;;;15.80;99.90;;;;;;5020292;28;20553;-83
2022/06/22 06:38:37;;;;;;;14.73;12.07;;;15.80;99.90;;;;;;5034145;28;20053;-82
2022/06/22 06:41:13;;;;;;;15.10;12.13;;;15.90;99.90;;;;;;5038034;28;20049;-82
2022/06/22 06:43:48;;;;;;;15.32;12.30;;;16.00;99.90;;;;;;5021209;28;20127;-82
2022/06/22 06:46:33;;;;;;;17.48;12.27;;;16.20;99.90;;;;;;5048261;28;20040;-83
2022/06/22 06:49:09;;;;;;;13.73;10.20;;;16.40;99.90;;;;;;5036206;28;20175;-83
2022/06/22 06:51:38;;;;;;;12.70;8.25;;;16.40;99.90;;;;;;5032294;28;20102;-83
2022/06/22 06:54:21;;;;;;;12.07;7.53;;;16.50;99.90;;;;;;5028653;28;20038;-82
2022/06/22 06:56:56;;;;;;;10.27;7.25;;;16.60;99.90;;;;;;5052840;28;20102;-83
2022/06/22 06:59:26;;;;;;;11.82;7.60;;;16.70;99.90;;;;;;5037157;28;20477;-82
2022/06/22 07:01:52;;;;;;;11.02;7.10;;;16.80;99.90;;;;;;5047115;28;20041;-83
2022/06/22 07:04:31;;;;;;;16.50;8.63;;;16.90;99.90;;;;;;5034150;28;20060;-83
2022/06/22 07:07:22;;;;;;;14.60;8.13;;;16.80;99.90;;;;;;5035221;28;20128;-83
2022/06/22 07:09:51;;;;;;;12.30;7.50;;;17.00;99.90;;;;;;5031999;28;20206;-83
2022/06/22 07:12:35;;;;;;;13.65;7.78;;;17.00;99.90;;;;;;5020227;28;20424;-83
2022/06/22 07:15:05;;;;;;;10.70;7.25;;;17.30;99.90;;;;;;5019758;28;20037;-83
2022/06/22 07:17:32;;;;;;;10.75;6.55;;;17.30;99.90;;;;;;5037004;28;20439;-83
2022/06/22 07:20:28;;;;;;;9.30;6.57;;;17.40;98.20;;;;;;5019815;28;20041;-83
2022/06/22 07:23:01;;;;;;;9.07;5.63;;;17.30;80.90;;;;;;5015902;28;20053;-83
2022/06/22 07:25:40;;;;;;;12.75;6.15;;;17.50;72.90;;;;;;5019927;28;20036;-83
2022/06/22 07:28:28;;;;;;;9.60;5.68;;;17.60;77.40;;;;;;5032497;28;20574;-83
2022/06/22 07:31:00;;;;;;;10.40;5.38;;;17.80;52.40;;;;;;5017936;28;20037;-83
2022/06/22 07:33:48;;;;;;;10.18;5.50;;;17.80;29.20;;;;;;5016739;28;20127;-83
2022/06/22 07:36:20;;;;;;;9.32;5.80;;;17.60;9.60;;;;;;5054999;28;20541;-83
2022/06/22 07:38:58;;;;;;;8.10;5.47;;;17.70;21.80;;;;;;5018576;28;20505;-83
2022/06/22 07:41:25;;;;;;;12.50;5.25;;;17.90;3.40;;;;;;5037783;28;20064;-83
2022/06/22 07:43:52;;;;;;;10.35;6.10;;;17.70;1.00;;;;;;5046846;28;20396;-83
2022/06/22 07:46:27;;;;;;;7.88;5.32;;;17.60;22.10;;;;;;5014281;28;20098;-83
2022/06/22 07:49:03;;;;;;;7.88;5.10;;;17.80;1.00;;;;;;5051826;28;20044;-83
2022/06/22 07:51:31;;;;;;;7.20;4.93;;;18.00;1.00;;;;;;5022889;28;20041;-83
2022/06/22 07:54:10;;;;;;;10.93;4.50;;;18.20;1.00;;;;;;5034139;28;20056;-83
2022/06/22 07:56:58;;;;;;;9.77;5.38;;;17.90;1.00;;;;;;5020425;28;20408;-83
2022/06/22 07:59:32;;;;;;;9.45;4.38;;;18.10;1.00;;;;;;5016340;28;20164;-83
2022/06/22 08:02:03;;;;;;;8.40;4.70;;;18.10;1.00;;;;;;5025051;28;20092;-83
2022/06/22 08:04:33;;;;;;;9.07;4.55;;;18.30;1.00;;;;;;5020209;28;20113;-83
2022/06/22 08:07:05;;;;;;;9.75;4.93;;;18.40;1.00;;;;;;5035931;28;20457;-83
2022/06/22 08:10:03;;;;;;;8.40;4.50;;;18.70;1.00;;;;;;5039677;28;20388;-83
2022/06/22 08:12:38;;;;;;;9.18;4.65;;;18.50;1.00;;;;;;5028606;28;20048;-83
2022/06/22 08:15:15;;;;;;;9.35;4.05;;;18.80;1.00;;;;;;5019256;28;20399;-83
2022/06/22 08:17:49;;;;;;;9.60;4.30;;;18.80;1.00;;;;;;5031529;28;20045;-83
2022/06/22 08:20:18;;;;;;;21.35;4.65;;;18.80;1.00;;;;;;5015570;28;20045;-83
2022/06/22 08:22:47;;;;;;;8.27;4.47;;;18.60;1.00;;;;;;5035352;28;20040;-83
2022/06/22 08:25:18;;;;;;;9.90;4.55;;;18.70;1.00;;;;;;5032297;28;20091;-83
2022/06/22 08:27:44;;;;;;;10.65;4.70;;;19.00;1.00;;;;;;5031907;28;20036;-83
2022/06/22 08:30:12;;;;;;;6.43;4.60;;;19.20;1.00;;;;;;5031896;28;20040;-83
2022/06/22 08:33:14;;;;;;;7.68;4.32;;;19.30;1.00;;;;;;5034256;28;20045;-83
2022/06/22 08:35:52;;;;;;;7.60;4.43;;;19.50;1.00;;;;;;4998449;28;20557;-84
2022/06/22 08:38:30;;;;;;;8.43;4.70;;;19.80;1.00;;;;;;5028574;28;20103;-84
2022/06/22 08:41:18;;;;;;;10.10;4.40;;;19.60;1.00;;;;;;5029559;28;20053;-84
2022/06/22 08:44:00;;;;;;;7.10;4.32;;;19.40;1.00;;;;;;5032893;28;20041;-83
2022/06/22 08:47:04;;;;;;;7.53;3.92;;;19.40;1.00;;;;;;5020835;28;20033;-84
2022/06/22 08:50:06;;;;;;;6.07;3.53;;;19.40;1.00;;;;;;4996013;28;20042;-84
2022/06/22 08:53:01;;;;;;;7.85;4.28;;;19.70;1.00;;;;;;4993859;28;20045;-84
2022/06/22 08:55:45;;;;;;;8.60;4.82;;;19.80;99.90;;;;;;5019389;28;20049;-83
2022/06/22 08:58:30;;;;;;;7.70;5.03;;;19.30;99.90;;;;;;5035604;28;20048;-84
2022/06/22 09:01:26;;;;;;;8.57;4.60;;;19.70;1.00;;;;;;5034681;28;20049;-83
2022/06/22 09:04:20;;;;;;;11.75;5.25;;;19.70;1.00;;;;;;5038145;28;20091;-83
2022/06/22 09:07:06;;;;;;;9.00;4.88;;;19.80;1.00;;;;;;5033910;28;20108;-83
2022/06/22 09:09:45;;;;;;;9.93;4.88;;;19.60;99.90;;;;;;5058454;28;20436;-84
2022/06/22 09:12:36;;;;;;;9.05;4.75;;;19.80;99.90;;;;;;5022442;28;20041;-83
2022/06/22 09:15:23;;;;;;;8.00;4.35;;;20.10;99.90;;;;;;5036131;28;20554;-84
2022/06/22 09:18:06;;;;;;;9.43;4.88;;;20.60;99.90;;;;;;5025912;28;20123;-84
2022/06/22 09:20:57;;;;;;;9.43;4.35;;;20.30;99.90;;;;;;5036018;28;20037;-83
2022/06/22 09:23:38;;;;;;;10.18;4.60;;;20.40;99.90;;;;;;5036766;28;20487;-84
2022/06/22 09:26:10;;;;;;;5.28;4.05;;;20.50;99.90;;;;;;5035754;28;20094;-84
2022/06/22 09:28:48;;;;;;;7.93;4.93;;;20.50;99.90;;;;;;5030254;28;20044;-83
2022/06/22 09:31:52;;;;;;;7.07;4.10;;;20.70;99.90;;;;;;5052332;28;20627;-84
2022/06/22 09:34:41;;;;;;;8.00;4.82;;;20.50;99.90;;;;;;5022752;28;20037;-84
2022/06/22 09:37:14;;;;;;;7.00;4.45;;;20.80;99.90;;;;;;5040202;28;20091;-84
2022/06/22 09:40:25;;;;;;;9.15;4.60;;;20.70;99.90;;;;;;5036674;28;20063;-84
2022/06/22 09:42:54;;;;;;;8.63;5.20;;;21.30;99.90;;;;;;5035266;28;20137;-84
2022/06/22 09:45:44;;;;;;;9.60;5.03;;;21.60;99.90;;;;;;5020606;28;20083;-84
2022/06/22 09:48:16;;;;;;;10.77;5.13;;;21.40;99.90;;;;;;5033114;28;20056;-84
2022/06/22 09:51:00;;;;;;;9.40;4.47;;;21.30;99.90;;;;;;5022884;28;20579;-84
2022/06/22 09:53:54;;;;;;;7.57;5.47;;;21.80;99.90;;;;;;5036969;28;20433;-84
2022/06/22 09:56:43;;;;;;;11.25;4.95;;;21.70;99.90;;;;;;5038954;28;20048;-84
2022/06/22 09:59:54;;;;;;;10.18;4.82;;;21.80;99.90;;;;;;5028378;28;20193;-84
2022/06/22 10:02:48;;;;;;;7.65;4.90;;;22.30;99.90;;;;;;5048875;28;20531;-84
2022/06/22 10:05:54;;;;;;;9.18;4.65;;;22.00;99.90;;;;;;5048814;28;20033;-85
2022/06/22 10:08:28;;;;;;;8.32;4.63;;;22.50;99.90;;;;;;5015831;28;20044;-84
2022/06/22 10:11:16;;;;;;;8.23;4.60;;;22.70;99.90;;;;;;5032970;28;20140;-84
2022/06/22 10:14:18;;;;;;;7.28;4.40;;;22.10;99.90;;;;;;5028232;28;20049;-84
2022/06/22 10:17:01;;;;;;;7.97;4.55;;;22.60;99.90;;;;;;5026413;28;20354;-85
2022/06/22 10:19:41;;;;;;;7.35;4.97;;;22.80;99.90;;;;;;5037658;28;20991;-84
2022/06/22 10:22:51;;;;;;;8.45;4.55;;;22.20;99.90;;;;;;5033073;28;20051;-84
2022/06/22 10:25:35;;;;;;;11.35;4.65;;;22.40;99.90;;;;;;5024552;28;20056;-84
2022/06/22 10:28:27;;;;;;;8.18;5.00;;;22.20;99.90;;;;;;5031140;28;20044;-85
2022/06/22 10:30:55;;;;;;;7.25;4.95;;;22.70;99.90;;;;;;5038815;28;20526;-84
2022/06/22 10:33:41;;;;;;;8.27;5.20;;;22.60;99.90;;;;;;5035909;28;20051;-84
2022/06/22 10:36:31;;;;;;;8.30;5.30;;;22.90;99.90;;;;;;5038807;28;20041;-84
2022/06/22 10:39:16;;;;;;;8.75;4.55;;;22.80;99.90;;;;;;5027549;28;20654;-85
2022/06/22 10:45:12;;;;;;;9.93;5.22;;;22.40;99.90;;;;;;5043367;28;20041;-84
2022/06/22 10:48:05;;;;;;;10.02;5.05;;;22.30;99.90;;;;;;5032783;28;20047;-85
2022/06/22 10:51:08;;;;;;;7.18;4.47;;;23.30;99.90;;;;;;5021448;28;20067;-84
2022/06/22 10:54:06;;;;;;;7.82;4.88;;;23.40;99.90;;;;;;5035886;28;20081;-85
2022/06/22 10:56:50;;;;;;;14.65;5.03;;;23.40;99.90;;;;;;5052955;28;20049;-84
2022/06/22 10:59:51;;;;;;;7.30;4.70;;;23.10;99.90;;;;;;5034838;28;20480;-85
2022/06/22 11:03:09;;;;;;;6.97;4.53;;;23.00;99.90;;;;;;5034673;28;20443;-84
2022/06/22 11:06:07;;;;;;;6.80;3.67;;;23.40;99.90;;;;;;4981188;28;20100;-84
2022/06/22 11:09:03;;;;;;;6.35;3.92;;;24.00;99.90;;;;;;5012983;28;20048;-84
2022/06/22 11:11:54;;;;;;;7.10;4.32;;;24.20;99.90;;;;;;5031137;28;20159;-84
2022/06/22 11:14:49;;;;;;;8.48;4.30;;;23.60;99.90;;;;;;5024121;28;20428;-84
2022/06/22 11:17:33;;;;;;;6.30;3.70;;;23.50;99.90;;;;;;5024896;28;20501;-84
2022/06/22 11:20:15;;;;;;;5.45;3.60;;;24.00;99.90;;;;;;5047154;28;20461;-84
2022/06/22 11:22:54;;;;;;;6.70;3.80;;;24.20;99.90;;;;;;5033845;28;20581;-84
2022/06/22 11:31:45;;;;;;;8.95;4.00;;;24.20;99.90;;;;;;5032884;28;20041;-85
2022/06/22 11:34:36;;;;;;;9.32;3.78;;;24.50;99.90;;;;;;5013516;28;20043;-85
2022/06/22 11:37:30;;;;;;;8.75;3.75;;;24.20;99.90;;;;;;5010944;28;20110;-84
2022/06/22 11:40:17;;;;;;;7.57;3.70;;;24.20;99.90;;;;;;5035335;28;20493;-85
2022/06/22 11:42:56;;;;;;;6.28;3.72;;;24.10;99.90;;;;;;5047705;28;20564;-84
2022/06/22 11:45:55;;;;;;;5.95;3.60;;;23.70;99.90;;;;;;5030381;28;20033;-84
2022/06/22 11:48:44;;;;;;;7.03;3.95;;;24.10;99.90;;;;;;5018994;28;20040;-84
2022/06/22 11:51:39;;;;;;;6.65;3.63;;;24.70;99.90;;;;;;5038550;28;20077;-85
2022/06/22 11:54:17;;;;;;;5.68;3.60;;;24.60;99.90;;;;;;5051677;28;20036;-85
2022/06/22 11:56:51;;;;;;;7.75;2.88;;;24.60;99.90;;;;;;5025612;28;20061;-85
2022/06/22 11:59:29;;;;;;;6.03;3.20;;;25.10;99.90;;;;;;5046286;28;20145;-85
2022/06/22 12:02:13;;;;;;;7.40;3.20;;;25.00;99.90;;;;;;5034011;28;20040;-85
2022/06/22 12:05:09;;;;;;;7.03;4.00;;;24.80;99.90;;;;;;5050434;28;20045;-85
2022/06/22 12:07:46;;;;;;;7.05;3.70;;;24.50;99.90;;;;;;5037252;28;20064;-85
2022/06/22 12:10:33;;;;;;;6.35;3.50;;;24.80;99.90;;;;;;5037793;28;20482;-86
2022/06/22 12:13:11;;;;;;;10.50;3.92;;;25.50;99.90;;;;;;5025293;28;20065;-84
2022/06/22 12:16:03;;;;;;;7.32;3.55;;;24.70;99.90;;;;;;5052846;28;20396;-85
2022/06/22 12:18:48;;;;;;;5.60;3.20;;;24.50;99.90;;;;;;5038206;28;20079;-85
2022/06/22 12:21:38;;;;;;;5.88;3.58;;;24.60;99.90;;;;;;5031350;28;20044;-84
2022/06/22 12:24:32;;;;;;;4.72;3.10;;;24.10;99.90;;;;;;5049618;28;20040;-85
2022/06/22 12:27:15;;;;;;;8.10;3.22;;;25.00;99.90;;;;;;5040829;28;20036;-85
2022/06/22 12:30:10;;;;;;;5.93;3.22;;;25.30;99.90;;;;;;5039114;28;20431;-85
2022/06/22 12:32:46;;;;;;;5.38;2.78;;;25.40;99.90;;;;;;5024789;28;20049;-85
2022/06/22 12:35:16;;;;;;;5.03;3.13;;;25.50;99.90;;;;;;5040587;28;20076;-86
2022/06/22 12:38:00;;;;;;;5.32;3.53;;;25.20;99.90;;;;;;5033441;28;20041;-85
2022/06/22 12:40:47;;;;;;;7.13;3.45;;;25.50;99.90;;;;;;5039118;28;20037;-85
2022/06/22 12:43:50;;;;;;;9.13;3.72;;;24.70;99.90;;;;;;5047633;28;20108;-85
2022/06/22 12:46:35;;;;;;;6.03;3.25;;;25.10;99.90;;;;;;5031360;28;20030;-85
2022/06/22 12:49:22;;;;;;;7.13;3.30;;;25.60;99.90;;;;;;5036038;28;20075;-85
2022/06/22 12:51:56;;;;;;;5.32;3.00;;;26.00;99.90;;;;;;5040422;28;20037;-86
2022/06/22 12:54:28;;;;;;;4.88;2.88;;;25.60;99.90;;;;;;5036908;28;20041;-85
2022/06/22 12:57:09;;;;;;;8.80;3.67;;;25.70;99.90;;;;;;5037874;28;20452;-85
2022/06/22 12:59:46;;;;;;;7.47;3.63;;;25.60;99.90;;;;;;5036395;28;20450;-85
2022/06/22 13:02:19;;;;;;;4.28;3.47;;;26.20;99.90;;;;;;5037159;28;20046;-85
2022/06/22 13:04:46;;;;;;;5.50;3.40;;;26.00;99.90;;;;;;5041346;28;20037;-85
2022/06/22 13:07:19;;;;;;;5.97;3.78;;;25.00;99.90;;;;;;5025455;28;20476;-85
2022/06/22 13:09:46;;;;;;;6.65;3.35;;;25.60;99.90;;;;;;5032942;28;20043;-85
2022/06/22 13:12:42;;;;;;;8.18;3.60;;;25.20;99.90;;;;;;5058379;28;20045;-85
2022/06/22 13:15:20;;;;;;;6.63;2.92;;;25.10;99.90;;;;;;5020718;28;20063;-85
2022/06/22 13:18:16;;;;;;;22.23;4.18;;;25.30;99.90;;;;;;5053491;28;20347;-85
2022/06/22 13:20:57;;;;;;;6.55;3.20;;;24.90;99.90;;;;;;5040811;28;20044;-86
2022/06/22 13:23:51;;;;;;;21.17;4.28;;;24.60;99.90;;;;;;5021636;28;20443;-85
2022/06/22 13:26:50;;;;;;;6.50;3.33;;;25.90;99.90;;;;;;5041775;28;20068;-86
2022/06/22 13:29:28;;;;;;;6.13;3.45;;;25.80;99.90;;;;;;5041169;28;20520;-86
2022/06/22 13:31:58;;;;;;;9.55;3.13;;;26.40;99.90;;;;;;5030709;28;20068;-85
2022/06/22 13:34:46;;;;;;;5.53;3.30;;;26.50;99.90;;;;;;5038689;28;20033;-86
2022/06/22 13:37:28;;;;;;;5.82;3.10;;;26.40;99.90;;;;;;5038326;28;20041;-86
2022/06/22 13:40:26;;;;;;;8.68;4.13;;;26.10;99.90;;;;;;5022490;28;20039;-86
2022/06/22 13:43:06;;;;;;;7.22;3.97;;;25.50;99.90;;;;;;5033317;28;20045;-87
2022/06/22 13:45:44;;;;;;;7.10;3.60;;;25.90;99.90;;;;;;5039320;28;20331;-86
2022/06/22 13:48:19;;;;;;;6.97;3.83;;;27.10;99.90;;;;;;5033564;28;20052;-86
2022/06/22 13:51:12;;;;;;;8.52;3.75;;;27.60;99.90;;;;;;5039618;28;20037;-85
2022/06/22 13:54:14;;;;;;;8.40;3.67;;;27.40;99.90;;;;;;5047886;28;20119;-86
2022/06/22 13:56:46;;;;;;;6.65;4.07;;;26.30;99.90;;;;;;5022970;28;20063;-85
2022/06/22 13:59:27;;;;;;;7.10;3.80;;;26.70;99.90;;;;;;5018191;28;20543;-86
2022/06/22 14:02:21;;;;;;;8.23;3.42;;;26.50;99.90;;;;;;5035524;28;20143;-86
2022/06/22 14:04:58;;;;;;;6.60;3.35;;;26.60;99.90;;;;;;5016201;28;20959;-86
2022/06/22 14:07:30;;;;;;;7.95;4.70;;;27.80;99.90;;;;;;5035095;28;20391;-86
2022/06/22 14:10:07;;;;;;;7.00;3.72;;;27.80;99.90;;;;;;5030489;28;20045;-86